Acworth, Georgia
Current Conditions -  °F | °C
As of 7:57 PM on Sunday 23 Nov 2014 (Local Time) from KRYY Reporting Station
Broken Clouds Broken Clouds  
Wind Chill: 14°   Ceiling: 1800
Heat Index: 14°   Visibility: 10mi
Dew Point: 13°   Wind: 6mph
Humidity: 94%   Direction: NA
Pressure: 29.69"   Gusts: NA
Location:  34.06°N, 84.68°W
Report Text: KRYY 240057Z VRB05KT 10SM BKN018 BKN023 14/13 A2969
Loading
Personal Weather Stations






























Interactive Weather Map New forecast layout! Learn more

10-Day Weather Forecast

Advertisements
Track Severe Weather on mobile